Time;durP1;ratioP1;P1;durP2;ratioP2;P2;SDS_P1;SDS_P2;PMS_P1;PMS_P2;Temp;Humidity;BMP_temperature;BMP_pressure;BME280_temperature;BME280_humidity;BME280_pressure;Samples;Min_cycle;Max_cycle;Signal;HPM_P1;HPM_P2
2023/09/24 00:01:05;;;;;;;7.45;5.47;;;;;;;20.37;61.50;99519.69;4447572;32;33553;-70
2023/09/24 00:03:34;;;;;;;4.68;2.72;;;;;;;20.34;61.47;99511.88;4446183;32;33906;-70
2023/09/24 00:06:09;;;;;;;5.25;2.62;;;;;;;20.14;62.04;99515.09;4436506;32;33873;-71
2023/09/24 00:08:37;;;;;;;5.32;2.83;;;;;;;20.03;61.91;99501.94;4435116;32;33748;-70
2023/09/24 00:11:05;;;;;;;9.07;3.37;;;;;;;20.25;61.37;99508.38;4446590;32;33653;-70
2023/09/24 00:13:33;;;;;;;4.55;3.03;;;;;;;20.20;61.38;99517.09;4447313;32;33957;-70
2023/09/24 00:16:06;;;;;;;3.45;2.25;;;;;;;20.26;61.19;99526.41;4438295;32;32531;-71
2023/09/24 00:18:35;;;;;;;5.30;3.00;;;;;;;19.85;61.71;99513.13;4441956;32;33740;-70
2023/09/24 00:21:04;;;;;;;3.87;2.33;;;;;;;20.12;61.57;99495.41;4443254;32;33863;-71
2023/09/24 00:23:32;;;;;;;6.47;3.40;;;;;;;20.05;61.62;99488.19;4452761;32;33807;-71
2023/09/24 00:26:00;;;;;;;5.12;2.72;;;;;;;20.02;61.58;99502.97;4443218;32;34202;-70
2023/09/24 00:28:29;;;;;;;6.32;5.15;;;;;;;19.98;61.41;99507.94;4448009;32;33497;-70
2023/09/24 00:30:58;;;;;;;3.00;1.98;;;;;;;19.95;61.43;99512.87;4447428;32;33575;-70
2023/09/24 00:33:26;;;;;;;4.40;2.78;;;;;;;20.08;61.12;99517.72;4445466;32;33665;-71
2023/09/24 00:35:58;;;;;;;7.00;4.22;;;;;;;19.66;62.55;99513.56;4443581;32;34591;-73
2023/09/24 00:38:26;;;;;;;6.57;2.20;;;;;;;19.69;62.76;99515.94;4443711;32;34468;-72
2023/09/24 00:40:54;;;;;;;5.40;2.17;;;;;;;20.04;61.21;99528.09;4437330;32;33779;-72
2023/09/24 00:43:30;;;;;;;3.42;2.35;;;;;;;19.95;61.21;99540.03;4438355;32;34065;-72
2023/09/24 00:45:59;;;;;;;2.30;1.30;;;;;;;20.09;60.64;99541.13;4442774;32;33973;-73
2023/09/24 00:48:29;;;;;;;4.87;3.22;;;;;;;19.99;60.98;99544.06;4443575;32;33348;-72
2023/09/24 00:50:58;;;;;;;4.10;2.22;;;;;;;20.06;60.88;99544.19;4446237;32;33806;-72
2023/09/24 00:53:27;;;;;;;3.10;1.60;;;;;;;20.06;60.93;99547.75;4411299;32;33973;-72
2023/09/24 00:55:55;;;;;;;3.22;1.92;;;;;;;20.11;60.67;99536.37;4411163;32;33873;-72
2023/09/24 00:58:27;;;;;;;2.10;1.20;;;;;;;19.83;61.12;99528.72;4402731;32;33855;-72
2023/09/24 01:00:57;;;;;;;1.95;1.33;;;;;;;19.98;60.60;99534.25;4409954;32;34166;-72
2023/09/24 01:03:26;;;;;;;3.12;1.85;;;;;;;20.04;60.33;99529.97;4416196;32;31753;-72
2023/09/24 01:05:55;;;;;;;6.07;4.35;;;;;;;20.02;60.22;99533.69;4395868;32;33825;-72
2023/09/24 01:08:24;;;;;;;3.65;1.92;;;;;;;19.93;60.76;99528.50;4418300;32;34002;-72
2023/09/24 01:10:52;;;;;;;5.80;3.42;;;;;;;19.51;62.33;99521.59;4410491;32;33922;-73
2023/09/24 01:13:20;;;;;;;4.12;2.58;;;;;;;19.55;62.32;99510.22;4407074;32;35202;-72
2023/09/24 01:15:48;;;;;;;4.20;2.97;;;;;;;19.54;61.88;99513.94;4407769;32;33959;-70
2023/09/24 01:18:16;;;;;;;4.95;2.90;;;;;;;19.46;62.30;99505.00;4405559;32;34637;-71
2023/09/24 01:20:44;;;;;;;7.80;5.45;;;;;;;18.94;64.52;99513.69;4405016;32;33601;-71
2023/09/24 01:23:16;;;;;;;6.12;4.07;;;;;;;19.46;62.49;99514.00;4403608;32;34947;-71
2023/09/24 01:25:44;;;;;;;5.00;2.25;;;;;;;19.52;62.34;99515.16;4407708;32;34192;-71
2023/09/24 01:28:12;;;;;;;5.60;2.75;;;;;;;19.72;61.70;99516.41;4417689;32;33230;-71
2023/09/24 01:30:40;;;;;;;5.15;2.62;;;;;;;19.48;61.87;99516.53;4427857;32;34813;-71
2023/09/24 01:33:07;;;;;;;5.70;2.62;;;;;;;19.22;62.99;99520.37;4427176;32;34013;-71
2023/09/24 01:35:36;;;;;;;7.00;3.30;;;;;;;19.56;61.90;99524.62;4437459;32;34002;-71
2023/09/24 01:38:05;;;;;;;5.57;2.60;;;;;;;19.43;62.24;99537.94;4422318;32;33449;-71
2023/09/24 01:40:35;;;;;;;4.82;2.50;;;;;;;19.45;61.89;99541.28;4435197;32;33998;-70
2023/09/24 01:43:05;;;;;;;4.22;2.62;;;;;;;19.51;61.77;99541.44;4441046;32;32439;-71
2023/09/24 01:45:34;;;;;;;4.65;3.15;;;;;;;19.32;63.25;99533.72;4434177;32;34831;-71
2023/09/24 01:48:02;;;;;;;3.92;2.58;;;;;;;19.23;63.77;99529.34;4444779;32;35143;-71
2023/09/24 01:50:35;;;;;;;10.35;2.80;;;;;;;19.20;63.81;99527.84;4438812;32;32349;-71
2023/09/24 01:53:06;;;;;;;7.65;2.70;;;;;;;19.43;62.91;99522.50;4425622;32;33496;-71
2023/09/24 01:55:36;;;;;;;2.85;1.92;;;;;;;19.53;62.50;99525.81;4425914;32;35058;-71
2023/09/24 01:58:04;;;;;;;3.72;2.47;;;;;;;19.72;61.80;99532.72;4435283;32;33628;-72
2023/09/24 02:00:32;;;;;;;3.42;2.15;;;;;;;19.72;62.09;99531.88;4447284;32;35261;-72
2023/09/24 02:03:05;;;;;;;6.85;5.18;;;;;;;19.66;62.24;99530.72;4443098;32;33692;-72
2023/09/24 02:05:34;;;;;;;3.70;2.35;;;;;;;19.70;62.12;99523.88;4449210;32;34012;-72
2023/09/24 02:08:08;;;;;;;3.08;2.12;;;;;;;19.84;61.57;99525.00;4449392;32;34335;-72
2023/09/24 02:10:40;;;;;;;3.70;2.25;;;;;;;19.84;61.66;99538.59;4443114;32;34631;-72
2023/09/24 02:13:10;;;;;;;2.80;1.85;;;;;;;19.94;60.86;99536.47;4445044;32;35267;-72
2023/09/24 02:15:38;;;;;;;5.97;3.00;;;;;;;19.94;60.89;99531.06;4443876;32;34823;-72
2023/09/24 02:18:06;;;;;;;3.83;2.58;;;;;;;19.94;60.60;99536.47;4444628;32;33179;-71
2023/09/24 02:20:35;;;;;;;6.35;4.70;;;;;;;19.94;60.61;99532.94;4445515;32;34625;-71
2023/09/24 02:23:04;;;;;;;4.35;2.95;;;;;;;19.57;61.83;99517.31;4452488;32;35119;-71
2023/09/24 02:25:35;;;;;;;2.72;1.83;;;;;;;19.21;63.25;99507.84;4442272;32;33687;-71
2023/09/24 02:28:03;;;;;;;3.58;1.85;;;;;;;19.42;62.96;99506.37;4451613;32;34505;-72
2023/09/24 02:30:31;;;;;;;3.45;2.53;;;;;;;19.16;63.47;99501.22;4444989;32;33731;-71
2023/09/24 02:33:01;;;;;;;4.75;2.58;;;;;;;19.43;62.72;99505.37;4448411;32;34100;-72
2023/09/24 02:35:29;;;;;;;4.35;2.90;;;;;;;19.64;62.06;99507.47;4445675;32;35022;-72
2023/09/24 02:37:56;;;;;;;4.32;1.98;;;;;;;19.84;61.39;99510.56;4451179;32;33325;-71
2023/09/24 02:40:26;;;;;;;5.82;2.65;;;;;;;19.87;61.54;99513.78;4430533;32;34500;-71
2023/09/24 02:42:58;;;;;;;5.45;3.22;;;;;;;19.75;62.20;99516.06;4449872;32;35177;-71
2023/09/24 02:45:27;;;;;;;4.87;2.80;;;;;;;19.81;61.59;99527.22;4443985;32;33927;-71
2023/09/24 02:47:56;;;;;;;5.97;2.97;;;;;;;19.92;61.23;99532.25;4437250;32;33302;-70
2023/09/24 02:50:26;;;;;;;4.32;2.72;;;;;;;19.99;60.89;99539.50;4440030;32;33687;-70
2023/09/24 02:52:56;;;;;;;8.77;5.90;;;;;;;19.99;60.94;99542.19;4436370;32;34226;-70
2023/09/24 02:55:25;;;;;;;3.50;2.58;;;;;;;19.90;61.10;99546.03;4450647;32;34560;-70
2023/09/24 02:57:53;;;;;;;2.92;2.25;;;;;;;19.99;60.70;99544.91;4445901;32;33167;-70
2023/09/24 03:00:32;;;;;;;4.57;2.92;;;;;;;19.98;60.87;99547.84;4444780;32;34818;-70
2023/09/24 03:03:01;;;;;;;3.83;2.20;;;;;;;19.87;61.35;99530.09;4444074;32;33789;-69
2023/09/24 03:05:29;;;;;;;5.60;3.37;;;;;;;19.94;61.05;99527.50;4441515;32;35109;-71
2023/09/24 03:08:05;;;;;;;3.33;2.45;;;;;;;19.83;61.69;99503.44;4441546;32;34907;-69
2023/09/24 03:10:34;;;;;;;7.72;4.50;;;;;;;19.49;62.36;99496.53;4445466;32;33928;-71
2023/09/24 03:13:04;;;;;;;2.95;1.87;;;;;;;19.54;62.66;99492.22;4439131;32;34519;-71
2023/09/24 03:15:33;;;;;;;3.97;2.58;;;;;;;19.54;62.86;99489.50;4447728;32;34775;-71
2023/09/24 03:18:01;;;;;;;9.48;6.37;;;;;;;19.71;62.26;99481.28;4445872;32;33621;-68
2023/09/24 03:20:29;;;;;;;4.82;2.62;;;;;;;19.49;62.76;99478.34;4437095;32;33501;-69
2023/09/24 03:23:08;;;;;;;4.62;2.35;;;;;;;19.58;62.76;99479.12;4436692;32;33757;-70
2023/09/24 03:25:36;;;;;;;3.10;1.75;;;;;;;19.63;62.21;99479.44;4445891;32;34687;-69
2023/09/24 03:28:04;;;;;;;6.50;2.92;;;;;;;19.50;62.96;99484.63;4449048;32;33335;-69
2023/09/24 03:30:32;;;;;;;4.45;2.65;;;;;;;19.58;62.38;99484.56;4443957;32;36635;-69
2023/09/24 03:33:00;;;;;;;3.50;2.12;;;;;;;19.68;62.11;99485.22;4443673;32;33825;-70
2023/09/24 03:35:29;;;;;;;9.02;4.78;;;;;;;18.96;64.59;99493.50;4450443;32;35656;-70
2023/09/24 03:37:57;;;;;;;4.30;2.40;;;;;;;19.00;64.89;99494.00;4446794;32;33981;-70
2023/09/24 03:40:26;;;;;;;3.80;2.00;;;;;;;19.46;63.02;99497.72;4438690;32;34566;-69
2023/09/24 03:42:55;;;;;;;6.15;4.80;;;;;;;19.52;63.33;99513.28;4451622;32;34131;-69
2023/09/24 03:45:24;;;;;;;6.30;4.62;;;;;;;19.38;63.90;99513.19;4449766;32;34029;-71
2023/09/24 03:47:53;;;;;;;4.43;2.08;;;;;;;19.27;64.46;99507.13;4449305;32;33344;-71
2023/09/24 03:50:21;;;;;;;8.25;5.45;;;;;;;19.53;63.44;99505.97;4440496;32;33833;-71
2023/09/24 03:52:50;;;;;;;3.17;2.08;;;;;;;19.61;63.04;99510.50;4436961;32;33061;-71
2023/09/24 03:55:19;;;;;;;9.25;5.35;;;;;;;19.72;62.60;99515.59;4437604;32;34193;-71
2023/09/24 03:57:47;;;;;;;7.40;4.90;;;;;;;19.64;62.99;99512.91;4445637;32;33370;-70
2023/09/24 04:00:18;;;;;;;6.03;4.30;;;;;;;19.57;63.56;99511.91;4448904;32;34161;-71
2023/09/24 04:02:49;;;;;;;5.40;2.95;;;;;;;19.81;62.39;99514.50;4458820;32;33894;-72
2023/09/24 04:05:21;;;;;;;3.83;2.62;;;;;;;19.82;62.24;99518.91;4452625;32;33926;-71
2023/09/24 04:07:53;;;;;;;3.55;2.17;;;;;;;19.46;63.37;99505.84;4451063;32;33553;-71
2023/09/24 04:10:22;;;;;;;5.50;3.40;;;;;;;19.66;62.72;99509.00;4456864;32;34713;-71
2023/09/24 04:12:50;;;;;;;3.00;2.25;;;;;;;19.64;62.95;99519.16;4436132;32;33663;-71
2023/09/24 04:15:27;;;;;;;4.65;3.28;;;;;;;19.52;63.35;99521.44;4435914;32;33705;-70
2023/09/24 04:17:57;;;;;;;5.50;3.15;;;;;;;19.68;62.90;99525.97;4430943;32;33776;-70
2023/09/24 04:20:31;;;;;;;6.20;3.42;;;;;;;19.74;62.71;99536.09;4431129;32;33710;-71
2023/09/24 04:22:59;;;;;;;4.62;2.90;;;;;;;19.54;63.85;99534.81;4437676;32;33576;-71
2023/09/24 04:25:27;;;;;;;4.20;2.90;;;;;;;19.69;63.28;99535.78;4434564;32;34066;-71
2023/09/24 04:27:55;;;;;;;6.07;3.03;;;;;;;19.77;63.03;99532.16;4449508;32;34955;-70
2023/09/24 04:30:24;;;;;;;4.90;2.95;;;;;;;19.84;62.82;99535.87;4441202;32;33847;-71
2023/09/24 04:32:53;;;;;;;5.53;2.90;;;;;;;19.72;63.05;99546.28;4441323;32;33996;-71
2023/09/24 04:35:21;;;;;;;4.32;2.65;;;;;;;19.68;63.60;99542.25;4435057;32;34242;-71
2023/09/24 04:37:50;;;;;;;6.05;3.58;;;;;;;19.81;63.23;99548.94;4447596;32;33339;-70
2023/09/24 04:40:19;;;;;;;8.50;3.95;;;;;;;19.62;64.23;99548.34;4434789;32;33460;-70
2023/09/24 04:42:50;;;;;;;7.72;3.75;;;;;;;19.73;64.02;99547.97;4420298;32;34573;-70
2023/09/24 04:45:18;;;;;;;5.07;2.97;;;;;;;19.58;64.48;99557.84;4435616;32;33818;-70
2023/09/24 04:47:48;;;;;;;7.15;5.80;;;;;;;19.91;63.10;99552.28;4436848;32;33398;-70
2023/09/24 04:50:16;;;;;;;9.48;5.95;;;;;;;19.94;62.95;99558.22;4443100;32;34999;-71
2023/09/24 04:52:47;;;;;;;5.10;2.22;;;;;;;19.98;63.13;99555.97;4458521;32;34804;-70
2023/09/24 04:55:15;;;;;;;4.20;2.53;;;;;;;20.05;62.93;99562.38;4451660;32;35493;-70
2023/09/24 04:57:46;;;;;;;4.45;2.72;;;;;;;20.09;62.57;99555.53;4453249;32;33228;-70
2023/09/24 05:00:15;;;;;;;3.92;2.35;;;;;;;20.06;63.06;99552.34;4449677;32;34844;-68
2023/09/24 05:02:44;;;;;;;5.37;2.30;;;;;;;19.83;63.85;99555.88;4443171;32;33974;-69
2023/09/24 05:05:14;;;;;;;4.32;2.15;;;;;;;20.01;63.33;99547.47;4448016;32;34056;-70
2023/09/24 05:07:42;;;;;;;2.60;1.73;;;;;;;19.92;63.90;99549.38;4455309;32;33568;-71
2023/09/24 05:10:10;;;;;;;4.62;2.22;;;;;;;20.04;63.66;99549.00;4460098;32;33573;-70
2023/09/24 05:12:37;;;;;;;5.05;2.78;;;;;;;19.95;63.86;99549.03;4457310;32;33905;-71
2023/09/24 05:15:06;;;;;;;4.20;2.35;;;;;;;20.11;63.42;99539.91;4450240;32;33718;-70
2023/09/24 05:17:34;;;;;;;4.22;2.10;;;;;;;20.06;63.59;99547.75;4445481;32;33895;-70
2023/09/24 05:20:03;;;;;;;4.47;2.20;;;;;;;20.18;63.33;99550.91;4454852;32;34610;-79
2023/09/24 05:22:31;;;;;;;3.15;1.65;;;;;;;20.22;63.38;99561.25;4453740;32;35051;-78
2023/09/24 05:24:58;;;;;;;4.05;2.35;;;;;;;20.04;63.79;99552.53;4449581;32;32556;-77
2023/09/24 05:27:29;;;;;;;2.90;1.48;;;;;;;20.25;63.40;99554.59;4450526;32;34329;-76
2023/09/24 05:29:57;;;;;;;4.37;1.58;;;;;;;20.35;62.95;99554.34;4456587;32;34652;-78
2023/09/24 05:32:24;;;;;;;4.35;1.52;;;;;;;20.34;62.85;99558.94;4464090;32;34088;-72
2023/09/24 05:34:52;;;;;;;2.17;1.70;;;;;;;20.37;62.93;99564.00;4459348;32;35308;-70
2023/09/24 05:37:20;;;;;;;4.25;3.08;;;;;;;20.37;63.07;99574.03;4437331;32;33420;-68
2023/09/24 05:39:48;;;;;;;6.15;2.92;;;;;;;20.27;63.18;99571.56;4441793;32;33708;-67
2023/09/24 05:42:16;;;;;;;4.70;2.95;;;;;;;20.30;63.14;99571.19;4447511;32;34194;-68
2023/09/24 05:44:44;;;;;;;5.75;3.25;;;;;;;20.31;63.07;99572.03;4450076;32;34135;-68
2023/09/24 05:47:12;;;;;;;3.30;1.85;;;;;;;20.35;63.08;99576.09;4444586;32;34399;-68
2023/09/24 05:49:39;;;;;;;2.65;1.58;;;;;;;20.28;63.69;99584.13;4453970;32;33577;-68
2023/09/24 05:52:07;;;;;;;3.55;1.70;;;;;;;20.30;63.55;99583.94;4436621;32;34974;-68
2023/09/24 05:54:37;;;;;;;5.68;2.25;;;;;;;20.27;63.95;99590.59;4450352;32;34166;-68
2023/09/24 05:57:05;;;;;;;3.65;1.92;;;;;;;20.34;63.80;99593.44;4451748;32;31338;-68
2023/09/24 05:59:33;;;;;;;3.53;1.65;;;;;;;20.43;63.23;99595.06;4449034;32;33874;-68
2023/09/24 06:02:00;;;;;;;3.35;1.65;;;;;;;20.43;63.12;99590.47;4456360;32;33419;-68
2023/09/24 06:04:30;;;;;;;2.10;1.00;;;;;;;20.27;63.62;99601.47;4448911;32;35220;-68
2023/09/24 06:06:58;;;;;;;3.50;1.83;;;;;;;20.33;63.41;99597.19;4454743;32;33178;-67
2023/09/24 06:09:28;;;;;;;3.37;1.90;;;;;;;20.32;63.79;99614.50;4444914;32;34799;-68
2023/09/24 06:11:56;;;;;;;2.78;1.65;;;;;;;20.33;64.06;99611.59;4451654;32;35096;-68
2023/09/24 06:14:24;;;;;;;2.55;1.45;;;;;;;20.44;63.38;99618.47;4448203;32;35115;-69
2023/09/24 06:16:51;;;;;;;2.37;1.35;;;;;;;20.45;63.29;99620.19;4448816;32;34489;-69
2023/09/24 06:19:19;;;;;;;4.15;1.73;;;;;;;20.24;63.78;99616.25;4450822;32;33935;-68
2023/09/24 06:21:51;;;;;;;2.33;1.42;;;;;;;20.34;63.67;99626.87;4450607;32;33956;-68
2023/09/24 06:24:20;;;;;;;3.50;1.73;;;;;;;20.39;63.58;99623.62;4443030;32;34646;-68
2023/09/24 06:26:48;;;;;;;2.60;1.60;;;;;;;20.39;63.78;99621.75;4452970;32;33317;-68
2023/09/24 06:29:16;;;;;;;1.73;1.40;;;;;;;20.50;63.64;99619.63;4452213;32;35114;-68
2023/09/24 06:31:46;;;;;;;2.28;1.33;;;;;;;20.55;63.62;99626.25;4452017;32;33766;-68
2023/09/24 06:34:14;;;;;;;2.45;1.52;;;;;;;20.53;64.02;99624.75;4454848;32;33603;-68
2023/09/24 06:36:41;;;;;;;3.15;1.50;;;;;;;20.53;63.89;99628.31;4455714;32;33570;-68
2023/09/24 06:39:13;;;;;;;4.07;1.33;;;;;;;20.60;63.59;99634.69;4444448;32;33274;-68
2023/09/24 06:41:41;;;;;;;5.60;1.60;;;;;;;20.63;63.82;99630.78;4448223;32;35458;-68
2023/09/24 06:44:14;;;;;;;2.47;1.23;;;;;;;20.55;64.26;99634.41;4446186;32;33816;-68
2023/09/24 06:46:41;;;;;;;4.18;0.95;;;;;;;20.62;64.37;99648.13;4456931;32;33278;-68
2023/09/24 06:49:10;;;;;;;2.10;1.17;;;;;;;20.70;64.28;99640.72;4452290;32;33498;-68
2023/09/24 06:51:37;;;;;;;2.95;1.30;;;;;;;20.77;64.17;99645.44;4447567;32;34944;-68
2023/09/24 06:54:05;;;;;;;1.17;0.90;;;;;;;20.69;64.34;99660.81;4443876;32;34127;-68
2023/09/24 06:56:33;;;;;;;3.72;1.90;;;;;;;20.74;64.05;99663.00;4444523;32;33398;-68
2023/09/24 06:59:00;;;;;;;3.50;1.60;;;;;;;20.78;64.07;99672.47;4449200;32;33753;-68
2023/09/24 07:01:28;;;;;;;2.60;1.23;;;;;;;20.79;63.95;99666.00;4442463;32;134944;-68
2023/09/24 07:03:56;;;;;;;2.50;1.40;;;;;;;20.81;64.14;99669.38;4441974;32;34162;-68
2023/09/24 07:06:24;;;;;;;2.10;1.48;;;;;;;20.80;64.46;99669.56;4446309;32;33447;-68
2023/09/24 07:08:52;;;;;;;2.00;1.17;;;;;;;20.84;64.48;99676.34;4457231;32;33632;-68
2023/09/24 07:11:26;;;;;;;2.42;1.17;;;;;;;20.86;64.47;99677.00;4463525;32;34864;-68
2023/09/24 07:13:54;;;;;;;2.50;1.45;;;;;;;20.79;64.81;99678.75;4452999;32;33859;-69
2023/09/24 07:16:25;;;;;;;2.37;0.93;;;;;;;20.92;64.44;99687.13;4454150;32;33220;-69
2023/09/24 07:18:54;;;;;;;2.03;0.95;;;;;;;20.97;64.21;99668.41;4441990;32;33417;-68
2023/09/24 07:21:26;;;;;;;3.37;1.60;;;;;;;21.02;64.20;99679.56;4441752;32;33850;-68
2023/09/24 07:24:03;;;;;;;3.03;1.33;;;;;;;21.04;64.22;99680.25;4443867;32;33876;-68
2023/09/24 07:26:31;;;;;;;2.28;1.52;;;;;;;21.10;64.08;99676.78;4448303;32;34607;-68
2023/09/24 07:29:00;;;;;;;1.67;0.82;;;;;;;21.14;63.91;99675.38;4444541;32;34906;-69
2023/09/24 07:31:29;;;;;;;1.10;0.82;;;;;;;21.11;63.89;99673.03;4454491;32;33848;-68
2023/09/24 07:34:00;;;;;;;1.83;0.85;;;;;;;20.99;64.44;99677.22;4445014;32;34742;-69
2023/09/24 07:36:31;;;;;;;2.75;1.58;;;;;;;21.05;64.40;99687.38;4457877;32;33432;-68
2023/09/24 07:39:08;;;;;;;4.00;1.70;;;;;;;21.17;64.10;99685.91;4457146;32;34597;-68
2023/09/24 07:41:36;;;;;;;1.75;1.23;;;;;;;21.16;64.17;99686.09;4451029;32;33942;-67
2023/09/24 07:44:04;;;;;;;5.00;2.28;;;;;;;21.21;64.05;99699.13;4457945;32;34028;-67
2023/09/24 07:46:32;;;;;;;4.10;1.42;;;;;;;21.13;64.25;99700.91;4456963;32;33094;-68
2023/09/24 07:49:05;;;;;;;2.40;1.42;;;;;;;21.21;63.99;99691.81;4452297;32;34780;-68
2023/09/24 07:51:32;;;;;;;6.22;1.60;;;;;;;21.20;64.05;99692.84;4444011;32;33671;-68
2023/09/24 07:54:00;;;;;;;1.90;1.12;;;;;;;21.07;64.56;99692.62;4448155;32;34891;-68
2023/09/24 07:56:28;;;;;;;1.77;0.75;;;;;;;21.03;64.46;99694.88;4462915;32;33676;-68
2023/09/24 07:58:56;;;;;;;3.83;1.25;;;;;;;20.93;64.98;99702.47;4451309;32;33915;-69
2023/09/24 08:01:24;;;;;;;1.35;0.35;;;;;;;20.54;65.92;99699.84;4451484;32;34873;-68
2023/09/24 08:03:52;;;;;;;0.75;0.45;;;;;;;20.58;66.07;99699.31;4441161;32;35149;-68
2023/09/24 08:06:20;;;;;;;1.30;0.70;;;;;;;20.81;65.23;99701.19;4446139;32;33267;-68
2023/09/24 08:08:48;;;;;;;2.28;0.65;;;;;;;20.58;65.78;99706.63;4447430;32;33896;-68
2023/09/24 08:11:32;;;;;;;1.45;0.30;;;;;;;20.54;65.94;99708.00;4450141;32;34005;-68
2023/09/24 08:14:01;;;;;;;1.30;0.40;;;;;;;20.73;65.25;99714.84;4450312;32;34927;-68
2023/09/24 08:16:29;;;;;;;2.67;0.73;;;;;;;21.07;64.00;99712.53;4447131;32;34660;-68
2023/09/24 08:18:57;;;;;;;1.87;0.30;;;;;;;20.74;64.96;99705.63;4457871;32;34674;-68
2023/09/24 08:21:29;;;;;;;1.27;0.55;;;;;;;20.14;66.58;99712.63;4440264;32;35249;-68
2023/09/24 08:23:57;;;;;;;1.00;0.45;;;;;;;20.67;65.02;99721.84;4447613;32;32523;-68
2023/09/24 08:26:25;;;;;;;0.37;0.37;;;;;;;20.84;64.32;99717.16;4446410;32;34350;-68
2023/09/24 08:28:52;;;;;;;1.60;0.95;;;;;;;20.53;64.87;99712.59;4450261;32;33821;-68
2023/09/24 08:31:20;;;;;;;0.60;0.45;;;;;;;20.40;65.39;99717.75;4449644;32;33644;-68
2023/09/24 08:33:49;;;;;;;1.20;0.68;;;;;;;20.39;65.39;99716.91;4449225;32;33882;-67
2023/09/24 08:36:17;;;;;;;2.28;0.52;;;;;;;20.62;64.49;99721.53;4454896;32;34456;-68
2023/09/24 08:38:45;;;;;;;0.65;0.45;;;;;;;20.81;63.78;99729.22;4441424;32;33034;-68
2023/09/24 08:41:13;;;;;;;0.52;0.43;;;;;;;20.83;63.58;99721.72;4445040;32;34023;-68
2023/09/24 08:43:42;;;;;;;0.62;0.40;;;;;;;20.69;63.81;99720.63;4446970;32;34045;-68
2023/09/24 08:46:11;;;;;;;0.30;0.30;;;;;;;20.96;62.87;99720.25;4438335;32;33386;-67
2023/09/24 08:48:41;;;;;;;4.05;0.93;;;;;;;20.77;63.16;99721.59;4445821;32;34413;-67
2023/09/24 08:51:09;;;;;;;0.77;0.43;;;;;;;20.87;62.77;99725.78;4450287;32;32391;-67
2023/09/24 08:53:39;;;;;;;0.80;0.43;;;;;;;20.98;62.59;99727.22;4437356;32;33740;-68
2023/09/24 08:56:07;;;;;;;1.50;0.80;;;;;;;21.06;62.29;99735.34;4448860;32;34244;-67
2023/09/24 08:58:38;;;;;;;1.60;0.60;;;;;;;21.05;61.95;99739.06;4452373;32;33615;-67
2023/09/24 09:01:10;;;;;;;0.95;0.57;;;;;;;21.00;62.17;99744.22;4448915;32;33863;-68
2023/09/24 09:03:39;;;;;;;1.10;0.50;;;;;;;21.00;62.26;99738.78;4433817;32;34281;-67
2023/09/24 09:06:08;;;;;;;0.85;0.60;;;;;;;20.92;62.88;99736.09;4435851;32;33024;-67
2023/09/24 09:08:53;;;;;;;0.60;0.60;;;;;;;20.83;63.18;99742.63;4442143;32;34610;-67
2023/09/24 09:11:46;;;;;;;1.08;0.60;;;;;;;20.94;63.00;99740.34;4435380;32;33868;-68
2023/09/24 09:14:14;;;;;;;0.47;0.47;;;;;;;21.03;62.51;99735.69;4436769;32;34061;-67
2023/09/24 09:16:55;;;;;;;0.65;0.52;;;;;;;20.67;63.59;99741.75;4434466;32;34306;-67
2023/09/24 09:19:23;;;;;;;1.62;0.57;;;;;;;20.94;62.52;99744.94;4440826;32;33663;-68
2023/09/24 09:21:51;;;;;;;1.20;0.65;;;;;;;20.84;62.53;99753.34;4429584;32;34125;-67
2023/09/24 09:24:21;;;;;;;0.95;0.62;;;;;;;20.45;63.84;99750.69;4431920;32;34737;-69
2023/09/24 09:26:56;;;;;;;1.45;0.90;;;;;;;20.86;62.41;99745.00;4430186;32;33158;-68
2023/09/24 09:29:25;;;;;;;0.70;0.50;;;;;;;21.02;61.87;99754.91;4435756;32;33595;-67
2023/09/24 09:31:54;;;;;;;3.00;0.50;;;;;;;20.83;62.31;99759.81;4436734;32;33798;-67
2023/09/24 09:34:24;;;;;;;0.70;0.60;;;;;;;20.92;61.81;99757.87;4438869;32;34000;-68
2023/09/24 09:36:51;;;;;;;1.00;0.77;;;;;;;20.85;62.02;99763.19;4450496;32;33227;-68
2023/09/24 09:39:19;;;;;;;0.50;0.50;;;;;;;20.75;61.80;99762.59;4451773;32;33637;-68
2023/09/24 09:41:47;;;;;;;2.60;1.08;;;;;;;20.30;63.25;99766.88;4444813;32;34574;-69
2023/09/24 09:44:15;;;;;;;2.92;1.05;;;;;;;20.43;62.89;99763.59;4435261;32;34299;-68
2023/09/24 09:46:46;;;;;;;0.98;0.55;;;;;;;20.17;63.31;99770.16;4432554;32;33526;-68
2023/09/24 09:49:17;;;;;;;0.70;0.47;;;;;;;19.68;64.54;99774.91;4453681;32;34733;-70
2023/09/24 09:51:47;;;;;;;0.62;0.43;;;;;;;19.90;64.83;99767.88;4431545;32;35148;-68
2023/09/24 09:54:15;;;;;;;3.40;1.00;;;;;;;19.95;64.67;99777.19;4447494;32;33825;-68
2023/09/24 09:56:43;;;;;;;2.10;1.10;;;;;;;19.82;65.08;99771.47;4452752;32;34141;-68
2023/09/24 09:59:11;;;;;;;1.45;0.37;;;;;;;20.12;63.93;99764.41;4451806;32;35166;-68
2023/09/24 10:01:39;;;;;;;1.55;0.65;;;;;;;19.70;65.33;99767.41;4430063;32;35264;-68
2023/09/24 10:04:08;;;;;;;1.05;0.60;;;;;;;20.01;64.72;99781.09;4431520;32;34626;-67
2023/09/24 10:06:38;;;;;;;1.25;0.75;;;;;;;19.78;65.06;99787.28;4431098;32;35183;-68
2023/09/24 10:09:29;;;;;;;1.25;0.82;;;;;;;19.49;66.16;99789.66;4433568;32;34694;-68
2023/09/24 10:11:57;;;;;;;5.85;1.00;;;;;;;19.54;65.80;99785.38;4434039;32;34627;-70
2023/09/24 10:14:36;;;;;;;0.47;0.47;;;;;;;19.39;66.36;99792.56;4433501;32;33990;-67
2023/09/24 10:17:33;;;;;;;1.65;0.35;;;;;;;19.49;66.11;99798.66;4436227;32;34093;-68
2023/09/24 10:20:08;;;;;;;0.37;0.37;;;;;;;19.23;66.20;99793.41;4362536;32;33729;-67
2023/09/24 10:22:40;;;;;;;2.83;1.08;;;;;;;19.45;65.93;99791.84;4353277;32;32595;-68
2023/09/24 10:25:34;;;;;;;0.60;0.47;;;;;;;18.96;67.78;99791.00;4351594;32;35219;-67
2023/09/24 10:28:06;;;;;;;0.70;0.37;;;;;;;19.12;66.74;99793.72;4354235;32;34338;-68
2023/09/24 10:31:07;;;;;;;0.37;0.30;;;;;;;18.68;68.80;99791.25;4354156;32;33694;-69
2023/09/24 10:33:57;;;;;;;0.75;0.60;;;;;;;18.90;67.54;99800.63;4353264;32;33994;-69
2023/09/24 10:36:33;;;;;;;0.98;0.70;;;;;;;18.51;69.35;99808.47;4364479;32;34919;-70
2023/09/24 10:39:05;;;;;;;0.62;0.43;;;;;;;19.23;67.06;99803.37;4360866;32;33317;-69
2023/09/24 10:41:35;;;;;;;0.57;0.40;;;;;;;18.71;69.25;99799.03;4360691;32;34593;-69
2023/09/24 10:44:33;;;;;;;0.60;0.52;;;;;;;18.07;70.87;99803.19;4357991;32;33643;-69
2023/09/24 10:47:25;;;;;;;1.27;0.73;;;;;;;18.94;67.82;99799.31;4298389;33;33937;-69
2023/09/24 10:50:15;;;;;;;1.08;0.82;;;;;;;18.87;68.83;99803.69;4297908;33;34211;-69
2023/09/24 10:52:49;;;;;;;3.30;1.10;;;;;;;18.92;67.68;99805.91;4299812;33;34295;-68
2023/09/24 10:55:19;;;;;;;1.45;0.80;;;;;;;18.97;68.29;99801.69;4297190;33;33937;-68
2023/09/24 10:57:49;;;;;;;0.30;0.30;;;;;;;19.15;67.64;99801.53;4360949;32;33862;-69
2023/09/24 11:00:17;;;;;;;1.02;0.93;;;;;;;18.15;70.25;99804.09;4359995;32;33212;-70
2023/09/24 11:02:45;;;;;;;2.28;1.05;;;;;;;18.88;67.52;99801.84;4365826;32;33507;-70
2023/09/24 11:05:14;;;;;;;2.15;1.12;;;;;;;18.43;69.83;99800.34;4371489;32;34599;-70
2023/09/24 11:07:41;;;;;;;0.62;0.40;;;;;;;18.74;67.48;99795.19;4372823;32;33669;-71
2023/09/24 11:10:09;;;;;;;0.73;0.57;;;;;;;18.76;67.14;99801.31;4382424;32;33216;-70
2023/09/24 11:12:37;;;;;;;1.85;0.73;;;;;;;19.20;65.53;99801.03;4371498;32;34897;-70
2023/09/24 11:15:05;;;;;;;0.47;0.47;;;;;;;19.06;66.60;99805.25;4368665;32;35131;-70
2023/09/24 11:17:44;;;;;;;0.30;0.30;;;;;;;19.20;66.33;99804.59;4369909;32;33958;-70
2023/09/24 11:20:13;;;;;;;0.95;0.55;;;;;;;19.02;66.73;99804.72;4371092;32;33422;-70
2023/09/24 11:22:41;;;;;;;1.55;0.77;;;;;;;18.57;68.18;99815.97;4365738;32;34751;-70
2023/09/24 11:25:13;;;;;;;0.75;0.37;;;;;;;19.17;66.49;99815.78;4433980;32;33923;-70
2023/09/24 11:27:48;;;;;;;0.37;0.37;;;;;;;19.41;65.16;99811.37;4437126;32;34647;-69
2023/09/24 11:30:17;;;;;;;0.20;0.20;;;;;;;19.28;65.51;99807.28;4426575;32;33445;-69
2023/09/24 11:32:46;;;;;;;0.65;0.57;;;;;;;19.46;64.97;99819.88;4434064;32;33345;-69
2023/09/24 11:35:16;;;;;;;0.75;0.50;;;;;;;19.23;65.21;99815.09;4432207;32;35225;-69
2023/09/24 11:37:58;;;;;;;1.20;0.65;;;;;;;19.30;65.26;99826.97;4430394;32;33656;-70
2023/09/24 11:40:31;;;;;;;1.75;0.75;;;;;;;19.62;64.51;99821.72;4434280;32;32730;-69
2023/09/24 11:43:02;;;;;;;0.52;0.47;;;;;;;19.94;63.23;99820.84;4429348;32;33921;-70
2023/09/24 11:45:50;;;;;;;0.45;0.40;;;;;;;19.84;63.14;99817.44;4428337;32;34945;-70
2023/09/24 11:48:19;;;;;;;2.60;0.85;;;;;;;19.92;62.63;99826.44;4427262;32;34187;-70